sensor_id;sensor_type;location;lat;lon;timestamp;temperature;humidity
41469;DHT22;27206;47.032;15.484;2022-07-18T00:02:18;16.70;80.90
41469;DHT22;27206;47.032;15.484;2022-07-18T00:04:44;16.70;82.60
41469;DHT22;27206;47.032;15.484;2022-07-18T00:07:09;16.70;92.00
41469;DHT22;27206;47.032;15.484;2022-07-18T00:09:42;16.70;91.80
41469;DHT22;27206;47.032;15.484;2022-07-18T00:12:08;16.60;84.20
41469;DHT22;27206;47.032;15.484;2022-07-18T00:14:35;16.50;83.40
41469;DHT22;27206;47.032;15.484;2022-07-18T00:17:02;16.50;81.90
41469;DHT22;27206;47.032;15.484;2022-07-18T00:19:28;16.50;90.40
41469;DHT22;27206;47.032;15.484;2022-07-18T00:21:54;16.50;99.90
41469;DHT22;27206;47.032;15.484;2022-07-18T00:24:20;16.40;99.90
41469;DHT22;27206;47.032;15.484;2022-07-18T00:26:45;16.50;99.90
41469;DHT22;27206;47.032;15.484;2022-07-18T00:29:11;16.50;99.90
41469;DHT22;27206;47.032;15.484;2022-07-18T00:31:38;16.40;99.90
41469;DHT22;27206;47.032;15.484;2022-07-18T00:34:03;16.30;99.90
41469;DHT22;27206;47.032;15.484;2022-07-18T00:36:30;16.20;99.90
41469;DHT22;27206;47.032;15.484;2022-07-18T00:38:56;16.20;99.90
41469;DHT22;27206;47.032;15.484;2022-07-18T00:41:22;16.20;99.90
41469;DHT22;27206;47.032;15.484;2022-07-18T00:43:48;16.20;99.90
41469;DHT22;27206;47.032;15.484;2022-07-18T00:46:14;16.20;99.90
41469;DHT22;27206;47.032;15.484;2022-07-18T00:48:40;16.10;99.90
41469;DHT22;27206;47.032;15.484;2022-07-18T00:51:07;16.10;99.90
41469;DHT22;27206;47.032;15.484;2022-07-18T00:53:33;16.00;99.90
41469;DHT22;27206;47.032;15.484;2022-07-18T00:55:59;16.10;99.90
41469;DHT22;27206;47.032;15.484;2022-07-18T00:58:26;16.00;99.90
41469;DHT22;27206;47.032;15.484;2022-07-18T01:00:52;16.00;99.90
41469;DHT22;27206;47.032;15.484;2022-07-18T01:03:36;16.00;99.90
41469;DHT22;27206;47.032;15.484;2022-07-18T01:06:02;16.10;99.90
41469;DHT22;27206;47.032;15.484;2022-07-18T01:08:28;16.00;99.90
41469;DHT22;27206;47.032;15.484;2022-07-18T01:10:54;15.90;99.90
41469;DHT22;27206;47.032;15.484;2022-07-18T01:13:20;15.90;99.90
41469;DHT22;27206;47.032;15.484;2022-07-18T01:15:46;16.00;99.90
41469;DHT22;27206;47.032;15.484;2022-07-18T01:18:12;15.90;99.90
41469;DHT22;27206;47.032;15.484;2022-07-18T01:20:37;15.90;99.90
41469;DHT22;27206;47.032;15.484;2022-07-18T01:23:03;15.90;99.90
41469;DHT22;27206;47.032;15.484;2022-07-18T01:25:29;15.80;99.90
41469;DHT22;27206;47.032;15.484;2022-07-18T01:27:55;15.70;99.90
41469;DHT22;27206;47.032;15.484;2022-07-18T01:30:22;15.60;99.90
41469;DHT22;27206;47.032;15.484;2022-07-18T01:32:58;15.60;99.90
41469;DHT22;27206;47.032;15.484;2022-07-18T01:35:25;15.60;99.90
41469;DHT22;27206;47.032;15.484;2022-07-18T01:37:52;15.70;99.90
41469;DHT22;27206;47.032;15.484;2022-07-18T01:40:18;15.50;99.90
41469;DHT22;27206;47.032;15.484;2022-07-18T01:42:44;15.60;99.90
41469;DHT22;27206;47.032;15.484;2022-07-18T01:45:10;15.50;99.90
41469;DHT22;27206;47.032;15.484;2022-07-18T01:47:35;15.50;99.90
41469;DHT22;27206;47.032;15.484;2022-07-18T01:50:01;15.60;99.90
41469;DHT22;27206;47.032;15.484;2022-07-18T01:52:27;15.60;99.90
41469;DHT22;27206;47.032;15.484;2022-07-18T01:54:52;15.60;99.90
41469;DHT22;27206;47.032;15.484;2022-07-18T01:57:18;15.50;99.90
41469;DHT22;27206;47.032;15.484;2022-07-18T01:59:44;15.40;99.90
41469;DHT22;27206;47.032;15.484;2022-07-18T02:02:09;15.50;99.90
41469;DHT22;27206;47.032;15.484;2022-07-18T02:04:35;15.40;99.90
41469;DHT22;27206;47.032;15.484;2022-07-18T02:07:20;15.40;99.90
41469;DHT22;27206;47.032;15.484;2022-07-18T02:09:45;15.30;99.90
41469;DHT22;27206;47.032;15.484;2022-07-18T02:12:11;15.40;99.90
41469;DHT22;27206;47.032;15.484;2022-07-18T02:14:37;15.40;99.90
41469;DHT22;27206;47.032;15.484;2022-07-18T02:17:02;15.30;99.90
41469;DHT22;27206;47.032;15.484;2022-07-18T02:19:28;15.30;99.90
41469;DHT22;27206;47.032;15.484;2022-07-18T02:21:54;15.30;99.90
41469;DHT22;27206;47.032;15.484;2022-07-18T02:24:19;15.20;99.90
41469;DHT22;27206;47.032;15.484;2022-07-18T02:26:45;15.20;99.90
41469;DHT22;27206;47.032;15.484;2022-07-18T02:29:11;15.30;99.90
41469;DHT22;27206;47.032;15.484;2022-07-18T02:31:36;15.30;99.90
41469;DHT22;27206;47.032;15.484;2022-07-18T02:34:02;15.20;99.90
41469;DHT22;27206;47.032;15.484;2022-07-18T02:36:38;15.20;99.90
41469;DHT22;27206;47.032;15.484;2022-07-18T02:39:05;15.30;99.90
41469;DHT22;27206;47.032;15.484;2022-07-18T02:41:32;15.20;99.90
41469;DHT22;27206;47.032;15.484;2022-07-18T02:43:57;15.20;99.90
41469;DHT22;27206;47.032;15.484;2022-07-18T02:46:23;15.10;99.90
41469;DHT22;27206;47.032;15.484;2022-07-18T02:48:49;15.10;99.90
41469;DHT22;27206;47.032;15.484;2022-07-18T02:51:15;15.10;99.90
41469;DHT22;27206;47.032;15.484;2022-07-18T02:53:40;15.10;99.90
41469;DHT22;27206;47.032;15.484;2022-07-18T02:56:06;15.10;99.90
41469;DHT22;27206;47.032;15.484;2022-07-18T02:58:32;15.10;99.90
41469;DHT22;27206;47.032;15.484;2022-07-18T03:00:58;15.10;99.90
41469;DHT22;27206;47.032;15.484;2022-07-18T03:03:24;15.00;99.90
41469;DHT22;27206;47.032;15.484;2022-07-18T03:05:50;15.00;99.90
41469;DHT22;27206;47.032;15.484;2022-07-18T03:08:15;15.10;99.90
41469;DHT22;27206;47.032;15.484;2022-07-18T03:10:41;15.00;99.90
41469;DHT22;27206;47.032;15.484;2022-07-18T03:13:07;14.90;99.90
41469;DHT22;27206;47.032;15.484;2022-07-18T03:15:33;14.90;99.90
41469;DHT22;27206;47.032;15.484;2022-07-18T03:17:58;15.00;99.90
41469;DHT22;27206;47.032;15.484;2022-07-18T03:20:24;15.00;99.90
41469;DHT22;27206;47.032;15.484;2022-07-18T03:22:50;15.10;99.90
41469;DHT22;27206;47.032;15.484;2022-07-18T03:25:15;15.10;99.90
41469;DHT22;27206;47.032;15.484;2022-07-18T03:27:41;15.10;99.90
41469;DHT22;27206;47.032;15.484;2022-07-18T03:30:07;15.00;99.90
41469;DHT22;27206;47.032;15.484;2022-07-18T03:32:33;15.00;99.90
41469;DHT22;27206;47.032;15.484;2022-07-18T03:34:59;15.10;99.90
41469;DHT22;27206;47.032;15.484;2022-07-18T03:37:24;15.90;88.10
41469;DHT22;27206;47.032;15.484;2022-07-18T03:39:50;15.40;99.90
41469;DHT22;27206;47.032;15.484;2022-07-18T03:42:16;15.30;99.90
41469;DHT22;27206;47.032;15.484;2022-07-18T03:44:41;15.30;99.90
41469;DHT22;27206;47.032;15.484;2022-07-18T03:47:07;15.30;99.90
41469;DHT22;27206;47.032;15.484;2022-07-18T03:49:32;15.30;99.90
41469;DHT22;27206;47.032;15.484;2022-07-18T03:51:58;15.20;99.90
41469;DHT22;27206;47.032;15.484;2022-07-18T03:54:24;15.20;99.90
41469;DHT22;27206;47.032;15.484;2022-07-18T03:56:50;15.20;99.90
41469;DHT22;27206;47.032;15.484;2022-07-18T03:59:16;15.30;99.90
41469;DHT22;27206;47.032;15.484;2022-07-18T04:01:42;15.30;99.90
41469;DHT22;27206;47.032;15.484;2022-07-18T04:04:07;15.40;99.90
41469;DHT22;27206;47.032;15.484;2022-07-18T04:06:33;15.40;99.90
41469;DHT22;27206;47.032;15.484;2022-07-18T04:08:59;15.40;99.90
41469;DHT22;27206;47.032;15.484;2022-07-18T04:11:24;15.40;99.90
41469;DHT22;27206;47.032;15.484;2022-07-18T04:13:53;15.40;99.90
41469;DHT22;27206;47.032;15.484;2022-07-18T04:16:19;15.40;99.90
41469;DHT22;27206;47.032;15.484;2022-07-18T04:18:45;15.40;99.90
41469;DHT22;27206;47.032;15.484;2022-07-18T04:21:11;15.40;99.90
41469;DHT22;27206;47.032;15.484;2022-07-18T04:23:36;15.60;99.90
41469;DHT22;27206;47.032;15.484;2022-07-18T04:26:02;15.60;99.90
41469;DHT22;27206;47.032;15.484;2022-07-18T04:28:29;15.70;99.90
41469;DHT22;27206;47.032;15.484;2022-07-18T04:30:55;15.70;99.90
41469;DHT22;27206;47.032;15.484;2022-07-18T04:33:21;15.80;99.90
41469;DHT22;27206;47.032;15.484;2022-07-18T04:35:48;15.80;99.90
41469;DHT22;27206;47.032;15.484;2022-07-18T04:38:14;15.90;99.90
41469;DHT22;27206;47.032;15.484;2022-07-18T04:40:40;16.00;99.90
41469;DHT22;27206;47.032;15.484;2022-07-18T04:43:09;16.00;99.90
41469;DHT22;27206;47.032;15.484;2022-07-18T04:45:35;16.10;99.90
41469;DHT22;27206;47.032;15.484;2022-07-18T04:48:02;16.10;99.90
41469;DHT22;27206;47.032;15.484;2022-07-18T04:50:28;16.10;99.90
41469;DHT22;27206;47.032;15.484;2022-07-18T04:52:56;16.20;99.90
41469;DHT22;27206;47.032;15.484;2022-07-18T04:55:22;16.20;99.90
41469;DHT22;27206;47.032;15.484;2022-07-18T04:57:49;16.30;99.90
41469;DHT22;27206;47.032;15.484;2022-07-18T05:00:20;16.40;99.90
41469;DHT22;27206;47.032;15.484;2022-07-18T05:02:48;16.40;99.90
41469;DHT22;27206;47.032;15.484;2022-07-18T05:05:15;16.50;99.90
41469;DHT22;27206;47.032;15.484;2022-07-18T05:07:43;16.60;98.30
41469;DHT22;27206;47.032;15.484;2022-07-18T05:10:11;16.70;97.10
41469;DHT22;27206;47.032;15.484;2022-07-18T05:12:38;16.80;79.20
41469;DHT22;27206;47.032;15.484;2022-07-18T05:15:05;16.90;58.80
41469;DHT22;27206;47.032;15.484;2022-07-18T05:17:31;17.00;52.80
41469;DHT22;27206;47.032;15.484;2022-07-18T05:19:57;17.10;54.70
41469;DHT22;27206;47.032;15.484;2022-07-18T05:22:23;17.10;48.00
41469;DHT22;27206;47.032;15.484;2022-07-18T05:24:50;17.30;36.50
41469;DHT22;27206;47.032;15.484;2022-07-18T05:27:17;17.30;28.50
41469;DHT22;27206;47.032;15.484;2022-07-18T05:29:43;17.40;20.40
41469;DHT22;27206;47.032;15.484;2022-07-18T05:32:08;17.50;13.90
41469;DHT22;27206;47.032;15.484;2022-07-18T05:34:34;17.50;7.90
41469;DHT22;27206;47.032;15.484;2022-07-18T05:37:00;17.50;10.30
41469;DHT22;27206;47.032;15.484;2022-07-18T05:39:26;17.60;9.60
41469;DHT22;27206;47.032;15.484;2022-07-18T05:41:52;17.70;12.80
41469;DHT22;27206;47.032;15.484;2022-07-18T05:44:17;17.70;2.00
41469;DHT22;27206;47.032;15.484;2022-07-18T05:46:46;17.80;1.00
41469;DHT22;27206;47.032;15.484;2022-07-18T05:49:13;17.90;1.00
41469;DHT22;27206;47.032;15.484;2022-07-18T05:51:39;17.90;1.00
41469;DHT22;27206;47.032;15.484;2022-07-18T05:54:05;18.00;1.00
41469;DHT22;27206;47.032;15.484;2022-07-18T05:56:31;18.10;1.00
41469;DHT22;27206;47.032;15.484;2022-07-18T05:58:57;18.10;1.00
41469;DHT22;27206;47.032;15.484;2022-07-18T06:01:24;18.20;1.00
41469;DHT22;27206;47.032;15.484;2022-07-18T06:03:49;18.30;1.00
41469;DHT22;27206;47.032;15.484;2022-07-18T06:06:15;18.30;1.00
41469;DHT22;27206;47.032;15.484;2022-07-18T06:08:42;18.40;1.00
41469;DHT22;27206;47.032;15.484;2022-07-18T06:11:08;18.50;1.00
41469;DHT22;27206;47.032;15.484;2022-07-18T06:13:39;18.60;1.00
41469;DHT22;27206;47.032;15.484;2022-07-18T06:16:07;18.60;1.00
41469;DHT22;27206;47.032;15.484;2022-07-18T06:18:33;18.70;1.00
41469;DHT22;27206;47.032;15.484;2022-07-18T06:21:02;18.70;1.00
41469;DHT22;27206;47.032;15.484;2022-07-18T06:23:29;18.80;1.00
41469;DHT22;27206;47.032;15.484;2022-07-18T06:25:55;18.90;1.00
41469;DHT22;27206;47.032;15.484;2022-07-18T06:28:21;19.00;1.00
41469;DHT22;27206;47.032;15.484;2022-07-18T06:30:47;19.00;1.00
41469;DHT22;27206;47.032;15.484;2022-07-18T06:33:12;19.10;1.00
41469;DHT22;27206;47.032;15.484;2022-07-18T06:35:39;19.20;1.00
41469;DHT22;27206;47.032;15.484;2022-07-18T06:38:05;19.30;1.00
41469;DHT22;27206;47.032;15.484;2022-07-18T06:40:31;19.40;1.00
41469;DHT22;27206;47.032;15.484;2022-07-18T06:42:57;19.50;1.00
41469;DHT22;27206;47.032;15.484;2022-07-18T06:45:23;19.50;1.00
41469;DHT22;27206;47.032;15.484;2022-07-18T06:47:48;19.60;1.00
41469;DHT22;27206;47.032;15.484;2022-07-18T06:50:14;19.70;1.00
41469;DHT22;27206;47.032;15.484;2022-07-18T06:52:41;19.70;1.00
41469;DHT22;27206;47.032;15.484;2022-07-18T06:55:08;19.80;1.00
41469;DHT22;27206;47.032;15.484;2022-07-18T06:57:35;19.90;1.00
41469;DHT22;27206;47.032;15.484;2022-07-18T07:00:00;20.00;1.00
41469;DHT22;27206;47.032;15.484;2022-07-18T07:02:26;20.10;1.00
41469;DHT22;27206;47.032;15.484;2022-07-18T07:04:52;20.20;1.00
41469;DHT22;27206;47.032;15.484;2022-07-18T07:07:18;20.30;1.00
41469;DHT22;27206;47.032;15.484;2022-07-18T07:09:44;20.30;1.00
41469;DHT22;27206;47.032;15.484;2022-07-18T07:12:10;20.40;1.00
41469;DHT22;27206;47.032;15.484;2022-07-18T07:14:36;20.50;1.00
41469;DHT22;27206;47.032;15.484;2022-07-18T07:17:02;20.60;1.00
41469;DHT22;27206;47.032;15.484;2022-07-18T07:19:28;20.80;1.00
41469;DHT22;27206;47.032;15.484;2022-07-18T07:21:54;20.90;1.00
41469;DHT22;27206;47.032;15.484;2022-07-18T07:24:20;21.00;1.00
41469;DHT22;27206;47.032;15.484;2022-07-18T07:26:45;21.20;1.00
41469;DHT22;27206;47.032;15.484;2022-07-18T07:29:11;21.20;1.00
41469;DHT22;27206;47.032;15.484;2022-07-18T07:31:37;21.30;1.00
41469;DHT22;27206;47.032;15.484;2022-07-18T07:34:03;21.40;1.00
41469;DHT22;27206;47.032;15.484;2022-07-18T07:36:29;21.40;1.00
41469;DHT22;27206;47.032;15.484;2022-07-18T07:38:55;21.40;1.00
41469;DHT22;27206;47.032;15.484;2022-07-18T07:41:20;21.50;1.00
41469;DHT22;27206;47.032;15.484;2022-07-18T07:43:46;21.50;1.00
41469;DHT22;27206;47.032;15.484;2022-07-18T07:46:12;21.60;1.00
41469;DHT22;27206;47.032;15.484;2022-07-18T07:48:38;21.80;1.00
41469;DHT22;27206;47.032;15.484;2022-07-18T07:51:04;22.00;1.00
41469;DHT22;27206;47.032;15.484;2022-07-18T07:53:30;22.00;1.00
41469;DHT22;27206;47.032;15.484;2022-07-18T07:55:56;22.20;1.00
41469;DHT22;27206;47.032;15.484;2022-07-18T07:58:22;22.30;1.00
41469;DHT22;27206;47.032;15.484;2022-07-18T08:00:47;22.50;1.00
41469;DHT22;27206;47.032;15.484;2022-07-18T08:03:13;22.70;1.00
41469;DHT22;27206;47.032;15.484;2022-07-18T08:05:45;22.70;1.00
41469;DHT22;27206;47.032;15.484;2022-07-18T08:08:11;22.70;1.00
41469;DHT22;27206;47.032;15.484;2022-07-18T08:10:37;22.80;1.00
41469;DHT22;27206;47.032;15.484;2022-07-18T08:13:03;22.90;1.00
41469;DHT22;27206;47.032;15.484;2022-07-18T08:15:28;23.10;1.00
41469;DHT22;27206;47.032;15.484;2022-07-18T08:17:55;23.20;1.00
41469;DHT22;27206;47.032;15.484;2022-07-18T08:20:21;23.50;1.00
41469;DHT22;27206;47.032;15.484;2022-07-18T08:22:54;23.70;1.00
41469;DHT22;27206;47.032;15.484;2022-07-18T08:25:20;23.80;1.00
41469;DHT22;27206;47.032;15.484;2022-07-18T08:27:46;23.70;1.00
41469;DHT22;27206;47.032;15.484;2022-07-18T08:30:12;23.50;1.00
41469;DHT22;27206;47.032;15.484;2022-07-18T08:32:37;23.60;1.00
41469;DHT22;27206;47.032;15.484;2022-07-18T08:35:03;23.60;1.00
41469;DHT22;27206;47.032;15.484;2022-07-18T08:37:29;23.70;1.00
41469;DHT22;27206;47.032;15.484;2022-07-18T08:39:55;23.90;1.00
41469;DHT22;27206;47.032;15.484;2022-07-18T08:42:24;24.10;1.00
41469;DHT22;27206;47.032;15.484;2022-07-18T08:44:51;24.30;1.00
41469;DHT22;27206;47.032;15.484;2022-07-18T08:47:17;24.20;1.00
41469;DHT22;27206;47.032;15.484;2022-07-18T08:49:45;24.20;1.00
41469;DHT22;27206;47.032;15.484;2022-07-18T08:52:11;24.10;1.00
41469;DHT22;27206;47.032;15.484;2022-07-18T08:54:37;24.20;1.00
41469;DHT22;27206;47.032;15.484;2022-07-18T08:57:03;24.50;1.00
41469;DHT22;27206;47.032;15.484;2022-07-18T08:59:28;24.60;1.00
41469;DHT22;27206;47.032;15.484;2022-07-18T09:01:54;24.70;1.00
41469;DHT22;27206;47.032;15.484;2022-07-18T09:07:02;25.00;1.00
41469;DHT22;27206;47.032;15.484;2022-07-18T09:09:29;25.00;1.00
41469;DHT22;27206;47.032;15.484;2022-07-18T09:11:58;24.90;1.00
41469;DHT22;27206;47.032;15.484;2022-07-18T09:19:41;25.70;1.00
41469;DHT22;27206;47.032;15.484;2022-07-18T09:27:29;25.40;1.00
41469;DHT22;27206;47.032;15.484;2022-07-18T09:30:20;25.50;1.00
41469;DHT22;27206;47.032;15.484;2022-07-18T09:32:51;25.50;1.00
41469;DHT22;27206;47.032;15.484;2022-07-18T09:35:28;26.00;1.00
41469;DHT22;27206;47.032;15.484;2022-07-18T09:37:58;25.90;1.00
41469;DHT22;27206;47.032;15.484;2022-07-18T09:40:32;25.90;1.00
41469;DHT22;27206;47.032;15.484;2022-07-18T09:43:04;26.30;1.00
41469;DHT22;27206;47.032;15.484;2022-07-18T09:45:35;26.90;1.00
41469;DHT22;27206;47.032;15.484;2022-07-18T09:48:04;26.90;1.00
41469;DHT22;27206;47.032;15.484;2022-07-18T09:50:36;26.70;1.00
41469;DHT22;27206;47.032;15.484;2022-07-18T09:55:49;27.20;1.00
41469;DHT22;27206;47.032;15.484;2022-07-18T09:58:17;27.00;1.00
41469;DHT22;27206;47.032;15.484;2022-07-18T10:00:44;27.30;1.00
41469;DHT22;27206;47.032;15.484;2022-07-18T10:03:09;27.60;1.00
41469;DHT22;27206;47.032;15.484;2022-07-18T10:05:38;27.30;1.00
41469;DHT22;27206;47.032;15.484;2022-07-18T10:08:16;27.40;1.00
41469;DHT22;27206;47.032;15.484;2022-07-18T10:10:44;27.30;1.00
41469;DHT22;27206;47.032;15.484;2022-07-18T10:13:11;27.30;1.00
41469;DHT22;27206;47.032;15.484;2022-07-18T10:15:39;27.40;1.00
41469;DHT22;27206;47.032;15.484;2022-07-18T10:18:06;27.40;1.00
41469;DHT22;27206;47.032;15.484;2022-07-18T10:20:33;27.20;1.00
41469;DHT22;27206;47.032;15.484;2022-07-18T10:23:23;27.50;1.00
41469;DHT22;27206;47.032;15.484;2022-07-18T10:28:30;27.50;1.00
41469;DHT22;27206;47.032;15.484;2022-07-18T10:31:12;27.60;1.00
41469;DHT22;27206;47.032;15.484;2022-07-18T10:33:44;28.00;1.00
41469;DHT22;27206;47.032;15.484;2022-07-18T10:36:21;28.00;1.00
41469;DHT22;27206;47.032;15.484;2022-07-18T10:42:12;28.30;1.00
41469;DHT22;27206;47.032;15.484;2022-07-18T10:44:38;28.50;1.00
41469;DHT22;27206;47.032;15.484;2022-07-18T10:47:09;29.00;1.00
41469;DHT22;27206;47.032;15.484;2022-07-18T10:57:33;28.90;1.00
41469;DHT22;27206;47.032;15.484;2022-07-18T11:00:17;28.90;1.00
41469;DHT22;27206;47.032;15.484;2022-07-18T11:03:07;28.80;1.00
41469;DHT22;27206;47.032;15.484;2022-07-18T11:05:41;28.80;1.00
41469;DHT22;27206;47.032;15.484;2022-07-18T11:08:18;28.60;1.00
41469;DHT22;27206;47.032;15.484;2022-07-18T11:15:55;28.80;1.00
41469;DHT22;27206;47.032;15.484;2022-07-18T11:18:21;29.00;1.00
41469;DHT22;27206;47.032;15.484;2022-07-18T11:20:47;29.00;1.00
41469;DHT22;27206;47.032;15.484;2022-07-18T11:23:19;29.10;1.00
41469;DHT22;27206;47.032;15.484;2022-07-18T11:25:50;29.30;1.00
41469;DHT22;27206;47.032;15.484;2022-07-18T11:28:17;29.40;1.00
41469;DHT22;27206;47.032;15.484;2022-07-18T11:30:44;29.40;1.00
41469;DHT22;27206;47.032;15.484;2022-07-18T11:33:25;29.30;1.00
41469;DHT22;27206;47.032;15.484;2022-07-18T11:35:52;30.00;1.00
41469;DHT22;27206;47.032;15.484;2022-07-18T11:38:18;29.80;1.00
41469;DHT22;27206;47.032;15.484;2022-07-18T11:40:51;29.70;1.00
41469;DHT22;27206;47.032;15.484;2022-07-18T11:43:25;29.70;1.00
41469;DHT22;27206;47.032;15.484;2022-07-18T11:48:33;29.90;1.00
41469;DHT22;27206;47.032;15.484;2022-07-18T11:50:59;30.10;1.00
41469;DHT22;27206;47.032;15.484;2022-07-18T11:53:25;30.20;1.00
41469;DHT22;27206;47.032;15.484;2022-07-18T11:55:53;30.40;1.00
41469;DHT22;27206;47.032;15.484;2022-07-18T11:58:19;30.50;1.00
41469;DHT22;27206;47.032;15.484;2022-07-18T12:00:46;31.00;1.00
41469;DHT22;27206;47.032;15.484;2022-07-18T12:03:16;30.80;1.00
41469;DHT22;27206;47.032;15.484;2022-07-18T12:05:53;31.20;1.00
41469;DHT22;27206;47.032;15.484;2022-07-18T12:08:33;31.00;1.00
41469;DHT22;27206;47.032;15.484;2022-07-18T12:11:06;30.80;1.00
41469;DHT22;27206;47.032;15.484;2022-07-18T12:14:03;30.70;1.00
41469;DHT22;27206;47.032;15.484;2022-07-18T12:19:01;30.90;1.00
41469;DHT22;27206;47.032;15.484;2022-07-18T12:21:50;31.40;1.00
41469;DHT22;27206;47.032;15.484;2022-07-18T12:26:48;30.90;1.00
41469;DHT22;27206;47.032;15.484;2022-07-18T12:29:22;31.20;1.00
41469;DHT22;27206;47.032;15.484;2022-07-18T12:31:47;31.10;1.00
41469;DHT22;27206;47.032;15.484;2022-07-18T12:34:15;31.10;1.00
41469;DHT22;27206;47.032;15.484;2022-07-18T12:39:30;31.10;1.00
41469;DHT22;27206;47.032;15.484;2022-07-18T12:41:57;31.40;1.00
41469;DHT22;27206;47.032;15.484;2022-07-18T12:44:24;31.20;1.00
41469;DHT22;27206;47.032;15.484;2022-07-18T12:46:50;31.50;1.00
41469;DHT22;27206;47.032;15.484;2022-07-18T12:49:15;31.80;1.00
41469;DHT22;27206;47.032;15.484;2022-07-18T12:51:41;32.00;1.00
41469;DHT22;27206;47.032;15.484;2022-07-18T12:54:07;32.20;1.00
41469;DHT22;27206;47.032;15.484;2022-07-18T12:56:32;31.90;1.00
41469;DHT22;27206;47.032;15.484;2022-07-18T12:58:58;32.00;1.00
41469;DHT22;27206;47.032;15.484;2022-07-18T13:01:24;32.40;1.00
41469;DHT22;27206;47.032;15.484;2022-07-18T13:03:49;32.60;1.00
41469;DHT22;27206;47.032;15.484;2022-07-18T13:06:15;32.40;1.00
41469;DHT22;27206;47.032;15.484;2022-07-18T13:08:41;31.90;1.00
41469;DHT22;27206;47.032;15.484;2022-07-18T13:11:06;31.70;1.00
41469;DHT22;27206;47.032;15.484;2022-07-18T13:13:32;31.70;1.00
41469;DHT22;27206;47.032;15.484;2022-07-18T13:15:58;31.60;1.00
41469;DHT22;27206;47.032;15.484;2022-07-18T13:18:24;31.60;1.00
41469;DHT22;27206;47.032;15.484;2022-07-18T13:20:49;31.70;1.00
41469;DHT22;27206;47.032;15.484;2022-07-18T13:23:15;31.90;1.00
41469;DHT22;27206;47.032;15.484;2022-07-18T13:25:41;32.00;99.90
41469;DHT22;27206;47.032;15.484;2022-07-18T13:28:07;32.00;1.00
41469;DHT22;27206;47.032;15.484;2022-07-18T13:30:33;32.00;1.00
41469;DHT22;27206;47.032;15.484;2022-07-18T13:32:59;31.90;1.00
41469;DHT22;27206;47.032;15.484;2022-07-18T13:35:25;31.50;1.00
41469;DHT22;27206;47.032;15.484;2022-07-18T13:37:51;31.70;1.00
41469;DHT22;27206;47.032;15.484;2022-07-18T13:40:16;32.30;1.00
41469;DHT22;27206;47.032;15.484;2022-07-18T13:42:43;32.20;1.00
41469;DHT22;27206;47.032;15.484;2022-07-18T13:45:09;32.60;1.00
41469;DHT22;27206;47.032;15.484;2022-07-18T13:47:35;32.90;1.00
41469;DHT22;27206;47.032;15.484;2022-07-18T13:50:00;32.30;99.90
41469;DHT22;27206;47.032;15.484;2022-07-18T13:52:26;32.60;1.00
41469;DHT22;27206;47.032;15.484;2022-07-18T13:54:52;32.40;1.00
41469;DHT22;27206;47.032;15.484;2022-07-18T13:57:20;32.10;1.00
41469;DHT22;27206;47.032;15.484;2022-07-18T13:59:46;32.40;1.00
41469;DHT22;27206;47.032;15.484;2022-07-18T14:02:12;32.40;1.00
41469;DHT22;27206;47.032;15.484;2022-07-18T14:04:37;32.50;1.00
41469;DHT22;27206;47.032;15.484;2022-07-18T14:07:03;32.70;1.00
41469;DHT22;27206;47.032;15.484;2022-07-18T14:09:30;32.50;1.00
41469;DHT22;27206;47.032;15.484;2022-07-18T14:11:56;32.60;1.00
41469;DHT22;27206;47.032;15.484;2022-07-18T14:14:21;32.60;1.00
41469;DHT22;27206;47.032;15.484;2022-07-18T14:16:47;32.60;1.00
41469;DHT22;27206;47.032;15.484;2022-07-18T14:19:12;33.00;1.00
41469;DHT22;27206;47.032;15.484;2022-07-18T14:21:38;32.80;1.00
41469;DHT22;27206;47.032;15.484;2022-07-18T14:24:04;32.40;1.00
41469;DHT22;27206;47.032;15.484;2022-07-18T14:26:30;31.90;1.00
41469;DHT22;27206;47.032;15.484;2022-07-18T14:28:56;31.90;1.00
41469;DHT22;27206;47.032;15.484;2022-07-18T14:31:21;32.30;1.00
41469;DHT22;27206;47.032;15.484;2022-07-18T14:33:47;32.40;1.00
41469;DHT22;27206;47.032;15.484;2022-07-18T14:36:14;32.80;1.00
41469;DHT22;27206;47.032;15.484;2022-07-18T14:38:40;32.80;99.90
41469;DHT22;27206;47.032;15.484;2022-07-18T14:41:06;33.20;99.90
41469;DHT22;27206;47.032;15.484;2022-07-18T14:43:32;32.90;99.90
41469;DHT22;27206;47.032;15.484;2022-07-18T14:45:57;32.60;99.90
41469;DHT22;27206;47.032;15.484;2022-07-18T14:48:23;32.60;99.90
41469;DHT22;27206;47.032;15.484;2022-07-18T14:50:49;32.60;99.90
41469;DHT22;27206;47.032;15.484;2022-07-18T14:53:14;32.80;99.90
41469;DHT22;27206;47.032;15.484;2022-07-18T14:55:40;32.90;99.90
41469;DHT22;27206;47.032;15.484;2022-07-18T14:58:06;32.90;99.90
41469;DHT22;27206;47.032;15.484;2022-07-18T15:00:31;32.90;99.90
41469;DHT22;27206;47.032;15.484;2022-07-18T15:02:57;32.30;99.90
41469;DHT22;27206;47.032;15.484;2022-07-18T15:05:22;32.30;99.90
41469;DHT22;27206;47.032;15.484;2022-07-18T15:07:48;32.30;1.00
41469;DHT22;27206;47.032;15.484;2022-07-18T15:10:14;32.20;99.90
41469;DHT22;27206;47.032;15.484;2022-07-18T15:12:40;32.20;99.90
41469;DHT22;27206;47.032;15.484;2022-07-18T15:15:06;32.00;1.00
41469;DHT22;27206;47.032;15.484;2022-07-18T15:17:32;32.00;1.00
41469;DHT22;27206;47.032;15.484;2022-07-18T15:19:58;32.60;1.00
41469;DHT22;27206;47.032;15.484;2022-07-18T15:22:23;32.60;99.90
41469;DHT22;27206;47.032;15.484;2022-07-18T15:24:49;32.10;99.90
41469;DHT22;27206;47.032;15.484;2022-07-18T15:27:15;32.00;1.00
41469;DHT22;27206;47.032;15.484;2022-07-18T15:29:40;32.10;99.90
41469;DHT22;27206;47.032;15.484;2022-07-18T15:32:06;31.80;1.00
41469;DHT22;27206;47.032;15.484;2022-07-18T15:34:39;31.70;1.00
41469;DHT22;27206;47.032;15.484;2022-07-18T15:37:05;31.90;99.90
41469;DHT22;27206;47.032;15.484;2022-07-18T15:39:31;31.60;1.00
41469;DHT22;27206;47.032;15.484;2022-07-18T15:41:58;31.60;99.90
41469;DHT22;27206;47.032;15.484;2022-07-18T15:44:24;31.40;1.00
41469;DHT22;27206;47.032;15.484;2022-07-18T15:46:50;31.50;1.00
41469;DHT22;27206;47.032;15.484;2022-07-18T15:49:16;31.40;1.00
41469;DHT22;27206;47.032;15.484;2022-07-18T15:51:41;31.10;1.00
41469;DHT22;27206;47.032;15.484;2022-07-18T15:54:16;31.00;1.00
41469;DHT22;27206;47.032;15.484;2022-07-18T15:56:42;30.90;1.00
41469;DHT22;27206;47.032;15.484;2022-07-18T15:59:08;30.80;1.00
41469;DHT22;27206;47.032;15.484;2022-07-18T16:01:34;30.70;1.00
41469;DHT22;27206;47.032;15.484;2022-07-18T16:04:00;30.70;1.00
41469;DHT22;27206;47.032;15.484;2022-07-18T16:06:25;31.00;1.00
41469;DHT22;27206;47.032;15.484;2022-07-18T16:08:51;31.00;1.00
41469;DHT22;27206;47.032;15.484;2022-07-18T16:11:17;30.90;1.00